createdAt,value
2018-07-01T00:01:39.097Z,23.66
2018-07-01T00:04:07.483Z,23.64
2018-07-01T00:06:35.835Z,23.64
2018-07-01T00:09:06.250Z,23.64
2018-07-01T00:11:34.701Z,23.61
2018-07-01T00:14:03.028Z,23.59
2018-07-01T00:16:31.395Z,23.58
2018-07-01T00:18:59.724Z,23.56
2018-07-01T00:21:28.094Z,23.51
2018-07-01T00:23:56.477Z,23.47
2018-07-01T00:26:24.822Z,23.42
2018-07-01T00:28:53.195Z,23.41
2018-07-01T00:31:21.497Z,23.42
2018-07-01T00:33:49.826Z,23.42
2018-07-01T00:36:18.163Z,23.40
2018-07-01T00:38:46.515Z,23.38
2018-07-01T00:41:14.891Z,23.38
2018-07-01T00:43:43.411Z,23.33
2018-07-01T00:46:11.775Z,23.32
2018-07-01T00:48:40.099Z,23.30
2018-07-01T00:51:08.582Z,23.25
2018-07-01T00:53:36.963Z,23.25
2018-07-01T00:56:05.395Z,23.20
2018-07-01T00:58:33.731Z,23.19
2018-07-01T01:01:02.095Z,23.19
2018-07-01T01:03:36.944Z,23.15
2018-07-01T01:06:05.594Z,23.13
2018-07-01T01:08:33.940Z,23.14
2018-07-01T01:11:02.318Z,23.10
2018-07-01T01:13:30.688Z,23.05
2018-07-01T01:15:59.088Z,23.02
2018-07-01T01:18:27.451Z,23.00
2018-07-01T01:20:55.740Z,22.98
2018-07-01T01:23:24.091Z,22.97
2018-07-01T01:25:52.457Z,22.97
2018-07-01T01:28:20.812Z,22.97
2018-07-01T01:30:49.251Z,22.94
2018-07-01T01:33:17.644Z,22.91
2018-07-01T01:35:47.372Z,22.89
2018-07-01T01:38:15.711Z,22.89
2018-07-01T01:41:46.897Z,22.89
2018-07-01T01:44:19.043Z,22.83
2018-07-01T01:46:55.644Z,22.80
2018-07-01T01:49:28.645Z,22.79
2018-07-01T01:52:06.455Z,22.76
2018-07-01T01:55:12.680Z,22.72
2018-07-01T01:58:00.088Z,22.68
2018-07-01T02:00:32.383Z,22.65
2018-07-01T02:03:38.403Z,22.64
2018-07-01T02:06:10.641Z,22.61
2018-07-01T02:08:42.920Z,22.60
2018-07-01T02:11:11.316Z,22.58
2018-07-01T02:13:41.911Z,22.52
2018-07-01T02:16:14.492Z,22.49
2018-07-01T02:18:42.817Z,22.49
2018-07-01T02:21:11.210Z,22.45
2018-07-01T02:23:43.211Z,22.42
2018-07-01T02:26:11.531Z,22.35
2018-07-01T02:28:39.929Z,22.35
2018-07-01T02:31:08.315Z,22.35
2018-07-01T02:33:36.636Z,22.30
2018-07-01T02:36:05.147Z,22.31
2018-07-01T02:38:33.489Z,22.29
2018-07-01T02:41:01.795Z,22.25
2018-07-01T02:43:30.148Z,22.23
2018-07-01T02:45:58.482Z,22.20
2018-07-01T02:48:26.801Z,22.17
2018-07-01T02:50:55.149Z,22.16
2018-07-01T02:53:23.456Z,22.13
2018-07-01T02:55:51.807Z,22.12
2018-07-01T02:58:20.144Z,22.11
2018-07-01T03:00:48.493Z,22.09
2018-07-01T03:03:16.840Z,22.07
2018-07-01T03:05:45.136Z,22.04
2018-07-01T03:08:13.463Z,22.02
2018-07-01T03:10:41.754Z,21.98
2018-07-01T03:13:10.101Z,21.93
2018-07-01T03:15:38.465Z,21.88
2018-07-01T03:18:06.756Z,21.84
2018-07-01T03:20:35.094Z,21.84
2018-07-01T03:23:03.499Z,21.82
2018-07-01T03:25:31.828Z,21.79
2018-07-01T03:28:00.140Z,21.79
2018-07-01T03:30:28.499Z,21.77
2018-07-01T03:32:56.806Z,21.77
2018-07-01T03:35:25.112Z,21.75
2018-07-01T03:37:53.484Z,21.71
2018-07-01T03:40:21.908Z,21.70
2018-07-01T03:42:50.295Z,21.70
2018-07-01T03:45:18.636Z,21.68
2018-07-01T03:47:46.959Z,21.66
2018-07-01T03:50:15.355Z,21.67
2018-07-01T03:52:43.627Z,21.65
2018-07-01T03:55:13.588Z,21.61
2018-07-01T03:57:41.976Z,21.57
2018-07-01T04:00:10.227Z,21.56
2018-07-01T04:02:38.571Z,21.54
2018-07-01T04:05:06.947Z,21.53
2018-07-01T04:07:35.351Z,21.52
2018-07-01T04:10:03.741Z,21.51
2018-07-01T04:12:32.051Z,21.53
2018-07-01T04:15:00.384Z,21.50
2018-07-01T04:17:28.667Z,21.46
2018-07-01T04:19:57.060Z,21.47
2018-07-01T04:22:25.467Z,21.45
2018-07-01T04:24:53.819Z,21.47
2018-07-01T04:27:22.113Z,21.46
2018-07-01T04:29:50.447Z,21.45
2018-07-01T04:32:18.767Z,21.42
2018-07-01T04:34:47.039Z,21.42
2018-07-01T04:37:15.382Z,21.43
2018-07-01T04:39:43.715Z,21.44
2018-07-01T04:42:12.055Z,21.46
2018-07-01T04:44:40.367Z,21.46
2018-07-01T04:47:08.682Z,21.46
2018-07-01T04:49:37.028Z,21.46
2018-07-01T04:52:05.383Z,21.45
2018-07-01T04:54:33.700Z,21.44
2018-07-01T04:57:02.878Z,21.43
2018-07-01T04:59:31.207Z,21.43
2018-07-01T05:01:59.539Z,21.43
2018-07-01T05:04:27.856Z,21.47
2018-07-01T05:06:56.183Z,21.48
2018-07-01T05:09:24.497Z,21.52
2018-07-01T05:11:52.805Z,21.52
2018-07-01T05:14:21.135Z,21.51
2018-07-01T05:16:49.436Z,21.49
2018-07-01T05:19:17.773Z,21.52
2018-07-01T05:21:46.098Z,21.52
2018-07-01T05:24:14.456Z,21.51
2018-07-01T05:26:42.783Z,21.46
2018-07-01T05:29:11.100Z,21.55
2018-07-01T05:31:39.395Z,21.58
2018-07-01T05:34:07.746Z,21.58
2018-07-01T05:36:36.120Z,21.60
2018-07-01T05:39:06.874Z,21.61
2018-07-01T05:41:35.227Z,21.64
2018-07-01T05:44:03.623Z,21.63
2018-07-01T05:46:31.931Z,21.64
2018-07-01T05:49:00.263Z,21.65
2018-07-01T05:51:28.640Z,21.67
2018-07-01T05:53:56.989Z,21.69
2018-07-01T05:56:25.360Z,21.69
2018-07-01T05:58:53.731Z,21.69
2018-07-01T06:01:22.037Z,21.70
2018-07-01T06:03:50.359Z,21.74
2018-07-01T06:06:18.789Z,21.76
2018-07-01T06:08:47.207Z,21.78
2018-07-01T06:11:15.451Z,21.79
2018-07-01T06:13:43.782Z,21.84
2018-07-01T06:16:12.103Z,21.82
2018-07-01T06:18:40.483Z,21.80
2018-07-01T06:21:09.571Z,21.84
2018-07-01T06:23:37.930Z,21.85
2018-07-01T06:26:06.287Z,21.86
2018-07-01T06:28:34.618Z,21.88
2018-07-01T06:31:02.983Z,21.91
2018-07-01T06:33:31.303Z,21.88
2018-07-01T06:35:59.663Z,21.89
2018-07-01T06:38:28.015Z,21.92
2018-07-01T06:40:56.399Z,21.97
2018-07-01T06:43:24.683Z,22.00
2018-07-01T06:45:53.016Z,22.04
2018-07-01T06:48:21.375Z,22.11
2018-07-01T06:50:49.727Z,22.15
2018-07-01T06:53:18.088Z,22.19
2018-07-01T06:55:46.379Z,22.21
2018-07-01T06:58:14.747Z,22.23
2018-07-01T07:00:43.047Z,22.21
2018-07-01T07:03:11.423Z,22.19
2018-07-01T07:05:39.768Z,22.16
2018-07-01T07:08:08.132Z,22.13
2018-07-01T07:10:36.455Z,22.08
2018-07-01T07:13:04.754Z,22.06
2018-07-01T07:15:33.127Z,22.08
2018-07-01T07:18:02.167Z,22.07
2018-07-01T07:20:30.514Z,22.07
2018-07-01T07:22:58.855Z,22.08
2018-07-01T07:25:27.188Z,22.12
2018-07-01T07:27:55.522Z,22.14
2018-07-01T07:30:23.948Z,22.16
2018-07-01T07:32:52.340Z,22.21
2018-07-01T07:35:20.716Z,22.22
2018-07-01T07:37:49.679Z,22.24
2018-07-01T07:40:18.096Z,22.30
2018-07-01T07:42:46.488Z,22.33
2018-07-01T07:45:14.879Z,22.36
2018-07-01T07:47:43.224Z,22.36
2018-07-01T07:50:12.111Z,22.39
2018-07-01T07:52:40.611Z,22.43
2018-07-01T07:55:09.088Z,22.46
2018-07-01T07:57:37.483Z,22.50
2018-07-01T08:00:05.863Z,22.54
2018-07-01T08:02:34.239Z,22.55
2018-07-01T08:05:02.937Z,22.60
2018-07-01T08:07:31.311Z,22.61
2018-07-01T08:09:59.737Z,22.65
2018-07-01T08:12:28.052Z,22.67
2018-07-01T08:14:56.375Z,22.68
2018-07-01T08:17:24.760Z,22.72
2018-07-01T08:19:53.239Z,22.73
2018-07-01T08:22:21.647Z,22.74
2018-07-01T08:24:49.987Z,22.76
2018-07-01T08:27:18.367Z,22.78
2018-07-01T08:29:46.666Z,22.80
2018-07-01T08:32:15.343Z,22.82
2018-07-01T08:34:43.668Z,22.87
2018-07-01T08:37:12.026Z,22.91
2018-07-01T08:39:40.327Z,22.94
2018-07-01T08:42:20.431Z,22.95
2018-07-01T08:44:49.331Z,22.96
2018-07-01T08:47:17.775Z,22.96
2018-07-01T08:49:46.083Z,22.96
2018-07-01T08:52:14.915Z,22.96
2018-07-01T08:54:43.595Z,22.97
2018-07-01T08:57:12.502Z,22.99
2018-07-01T08:59:40.834Z,23.00
2018-07-01T09:02:09.251Z,22.99
2018-07-01T09:04:38.176Z,22.99
2018-07-01T09:07:06.699Z,22.99
2018-07-01T09:09:35.056Z,23.01
2018-07-01T09:12:03.391Z,23.06
2018-07-01T09:14:31.759Z,23.10
2018-07-01T09:17:00.142Z,23.15
2018-07-01T09:19:41.042Z,23.19
2018-07-01T09:22:09.687Z,23.22
2018-07-01T09:24:38.591Z,23.25
2018-07-01T09:27:07.011Z,23.28
2018-07-01T09:29:39.537Z,23.31
2018-07-01T09:32:08.466Z,23.33
2018-07-01T09:34:36.985Z,23.37
2018-07-01T09:37:05.333Z,23.38
2018-07-01T09:39:33.699Z,23.41
2018-07-01T09:42:02.022Z,23.44
2018-07-01T09:44:30.375Z,23.45
2018-07-01T09:46:58.827Z,23.49
2018-07-01T09:49:27.165Z,23.52
2018-07-01T09:51:55.583Z,23.56
2018-07-01T09:54:23.899Z,23.60
2018-07-01T09:56:53.628Z,23.63
2018-07-01T09:59:21.992Z,23.66
2018-07-01T10:01:50.391Z,23.70
2018-07-01T10:04:19.554Z,23.73
2018-07-01T10:06:48.011Z,23.77
2018-07-01T10:09:16.353Z,23.80
2018-07-01T10:11:44.786Z,23.85
2018-07-01T10:14:13.196Z,23.89
2018-07-01T10:16:41.565Z,23.95
2018-07-01T10:19:10.013Z,23.99
2018-07-01T10:21:38.536Z,24.03
2018-07-01T10:24:06.960Z,24.07
2018-07-01T10:26:35.449Z,24.08
2018-07-01T10:29:13.407Z,24.10
2018-07-01T10:31:42.916Z,24.14
2018-07-01T10:34:12.303Z,24.20
2018-07-01T10:36:40.796Z,24.31
2018-07-01T10:39:11.642Z,24.41
2018-07-01T10:41:40.027Z,24.51
2018-07-01T10:44:08.403Z,24.66
2018-07-01T10:46:36.863Z,24.78
2018-07-01T10:49:05.410Z,24.94
2018-07-01T10:51:33.839Z,25.15
2018-07-01T10:54:02.171Z,25.42
2018-07-01T10:56:30.511Z,25.80
2018-07-01T10:58:58.856Z,26.21
2018-07-01T11:01:27.279Z,26.55
2018-07-01T11:03:55.693Z,26.80
2018-07-01T11:06:24.400Z,27.04
2018-07-01T11:08:52.790Z,27.29
2018-07-01T11:11:21.182Z,27.53
2018-07-01T11:13:49.511Z,27.70
2018-07-01T11:16:17.931Z,27.94
2018-07-01T11:18:46.307Z,28.14
2018-07-01T11:21:15.325Z,28.33
2018-07-01T11:23:43.741Z,28.50
2018-07-01T11:26:12.151Z,28.74
2018-07-01T11:28:40.480Z,28.88
2018-07-01T11:31:08.892Z,29.00
2018-07-01T11:33:37.227Z,29.15
2018-07-01T11:36:05.578Z,29.29
2018-07-01T11:38:33.934Z,29.46
2018-07-01T11:41:02.328Z,29.50
2018-07-01T11:43:30.735Z,29.67
2018-07-01T11:45:59.151Z,29.79
2018-07-01T11:48:27.629Z,29.87
2018-07-01T11:50:55.991Z,30.05
2018-07-01T11:53:24.318Z,30.23
2018-07-01T11:55:52.671Z,30.33
2018-07-01T11:58:21.009Z,30.44
2018-07-01T12:00:49.323Z,30.56
2018-07-01T12:03:17.739Z,30.66
2018-07-01T12:05:46.055Z,30.78
2018-07-01T12:08:14.431Z,30.89
2018-07-01T12:10:42.791Z,31.04
2018-07-01T12:13:11.185Z,31.11
2018-07-01T12:15:39.755Z,31.21
2018-07-01T12:18:08.160Z,31.27
2018-07-01T12:20:36.494Z,31.32
2018-07-01T12:23:04.927Z,31.48
2018-07-01T12:25:33.308Z,31.58
2018-07-01T12:28:01.707Z,31.62
2018-07-01T12:30:30.140Z,31.64
2018-07-01T12:32:58.497Z,31.68
2018-07-01T12:35:26.799Z,31.58
2018-07-01T12:37:55.139Z,31.58
2018-07-01T12:40:23.859Z,31.74
2018-07-01T12:42:52.257Z,31.88
2018-07-01T12:45:20.612Z,32.03
2018-07-01T12:47:48.917Z,32.19
2018-07-01T12:50:17.294Z,32.31
2018-07-01T12:52:45.645Z,32.37
2018-07-01T12:55:14.128Z,32.43
2018-07-01T12:57:42.503Z,32.55
2018-07-01T13:00:10.867Z,32.66
2018-07-01T13:02:39.176Z,32.68
2018-07-01T13:05:07.531Z,32.72
2018-07-01T13:07:35.952Z,32.73
2018-07-01T13:10:04.401Z,32.78
2018-07-01T13:12:32.799Z,32.82
2018-07-01T13:15:01.202Z,32.91
2018-07-01T13:17:29.526Z,32.92
2018-07-01T13:19:57.983Z,32.90
2018-07-01T13:22:26.512Z,32.95
2018-07-01T13:24:55.352Z,33.03
2018-07-01T13:27:23.703Z,33.05
2018-07-01T13:29:52.666Z,33.13
2018-07-01T13:32:21.070Z,33.13
2018-07-01T13:34:49.401Z,33.07
2018-07-01T13:37:17.703Z,32.96
2018-07-01T13:39:46.003Z,32.91
2018-07-01T13:42:14.427Z,32.91
2018-07-01T13:44:42.815Z,32.93
2018-07-01T13:47:11.593Z,32.99
2018-07-01T13:49:40.060Z,33.07
2018-07-01T13:52:08.399Z,33.15
2018-07-01T13:54:36.854Z,33.23
2018-07-01T13:57:05.320Z,33.26
2018-07-01T13:59:33.756Z,33.30
2018-07-01T14:02:02.068Z,33.24
2018-07-01T14:04:30.462Z,33.26
2018-07-01T14:06:58.839Z,33.30
2018-07-01T14:09:27.236Z,33.32
2018-07-01T14:11:55.616Z,33.31
2018-07-01T14:14:24.035Z,33.29
2018-07-01T14:16:52.351Z,33.28
2018-07-01T14:19:20.686Z,33.26
2018-07-01T14:21:49.072Z,33.27
2018-07-01T14:24:17.803Z,33.32
2018-07-01T14:26:46.144Z,33.32
2018-07-01T14:29:14.480Z,33.30
2018-07-01T14:31:42.996Z,33.27
2018-07-01T14:34:11.377Z,33.26
2018-07-01T14:36:39.723Z,33.19
2018-07-01T14:39:10.179Z,33.12
2018-07-01T14:41:38.559Z,33.00
2018-07-01T14:44:07.076Z,32.91
2018-07-01T14:46:35.927Z,32.81
2018-07-01T14:49:04.372Z,32.76
2018-07-01T14:51:33.017Z,32.59
2018-07-01T14:54:01.691Z,32.52
2018-07-01T14:56:30.122Z,32.39
2018-07-01T14:58:58.503Z,32.27
2018-07-01T15:01:26.896Z,32.19
2018-07-01T15:03:55.272Z,32.18
2018-07-01T15:06:23.644Z,32.08
2018-07-01T15:08:52.003Z,31.97
2018-07-01T15:11:20.495Z,31.86
2018-07-01T15:13:48.883Z,31.77
2018-07-01T15:16:17.271Z,31.67
2018-07-01T15:18:45.632Z,31.53
2018-07-01T15:21:13.992Z,31.51
2018-07-01T15:23:42.372Z,31.48
2018-07-01T15:26:10.732Z,31.44
2018-07-01T15:28:39.207Z,31.40
2018-07-01T15:31:08.012Z,31.36
2018-07-01T15:33:36.392Z,31.35
2018-07-01T15:36:04.756Z,31.35
2018-07-01T15:38:33.180Z,31.35
2018-07-01T15:41:01.511Z,31.37
2018-07-01T15:43:29.916Z,31.36
2018-07-01T15:45:58.319Z,31.27
2018-07-01T15:48:26.775Z,31.25
2018-07-01T15:50:55.232Z,31.31
2018-07-01T15:53:23.603Z,31.41
2018-07-01T15:55:51.947Z,31.49
2018-07-01T15:58:20.280Z,31.55
2018-07-01T16:00:48.619Z,31.67
2018-07-01T16:03:17.179Z,31.79
2018-07-01T16:05:45.493Z,32.04
2018-07-01T16:08:13.863Z,32.43
2018-07-01T16:10:42.269Z,32.85
2018-07-01T16:13:10.727Z,33.39
2018-07-01T16:15:39.251Z,33.93
2018-07-01T16:18:07.592Z,34.36
2018-07-01T16:20:35.911Z,34.58
2018-07-01T16:23:04.300Z,34.91
2018-07-01T16:25:38.158Z,35.27
2018-07-01T16:29:14.566Z,35.50
2018-07-01T16:31:43.069Z,35.94
2018-07-01T16:34:11.510Z,36.21
2018-07-01T16:36:39.892Z,36.56
2018-07-01T16:39:11.120Z,36.69
2018-07-01T16:41:39.697Z,36.74
2018-07-01T16:44:08.199Z,36.86
2018-07-01T16:46:36.571Z,36.88
2018-07-01T16:49:05.055Z,36.88
2018-07-01T16:51:33.479Z,36.92
2018-07-01T16:54:02.083Z,37.04
2018-07-01T16:56:30.417Z,37.13
2018-07-01T16:58:58.863Z,36.99
2018-07-01T17:01:27.173Z,37.01
2018-07-01T17:03:55.576Z,36.92
2018-07-01T17:06:24.004Z,36.88
2018-07-01T17:08:52.365Z,36.82
2018-07-01T17:11:20.763Z,36.66
2018-07-01T17:13:49.132Z,36.33
2018-07-01T17:16:17.999Z,36.08
2018-07-01T17:18:46.389Z,35.76
2018-07-01T17:21:14.770Z,35.57
2018-07-01T17:23:43.159Z,35.42
2018-07-01T17:26:11.534Z,35.05
2018-07-01T17:28:39.848Z,34.59
2018-07-01T17:31:13.389Z,34.20
2018-07-01T17:33:41.792Z,33.81
2018-07-01T17:36:10.265Z,33.44
2018-07-01T17:38:38.728Z,33.12
2018-07-01T17:41:07.080Z,32.83
2018-07-01T17:43:36.356Z,32.60
2018-07-01T17:46:05.663Z,32.41
2018-07-01T17:48:34.311Z,32.33
2018-07-01T17:51:02.588Z,32.28
2018-07-01T17:53:42.310Z,32.19
2018-07-01T17:56:10.707Z,31.92
2018-07-01T17:58:38.990Z,31.67
2018-07-01T18:01:07.395Z,31.30
2018-07-01T18:03:35.774Z,30.92
2018-07-01T18:06:04.400Z,30.60
2018-07-01T18:08:32.762Z,30.35
2018-07-01T18:11:01.146Z,30.17
2018-07-01T18:13:29.451Z,30.05
2018-07-01T18:15:58.472Z,29.95
2018-07-01T18:18:26.906Z,29.80
2018-07-01T18:20:55.284Z,29.66
2018-07-01T18:23:53.708Z,29.50
2018-07-01T18:25:51.947Z,29.37
2018-07-01T18:28:34.107Z,29.25
2018-07-01T18:30:48.617Z,29.15
2018-07-01T18:33:16.974Z,29.05
2018-07-01T18:35:45.435Z,28.97
2018-07-01T18:38:13.823Z,28.89
2018-07-01T18:40:42.158Z,28.76
2018-07-01T18:43:10.524Z,28.68
2018-07-01T18:45:38.887Z,28.62
2018-07-01T18:48:08.679Z,28.52
2018-07-01T18:50:37.102Z,28.43
2018-07-01T18:53:05.649Z,28.35
2018-07-01T18:55:33.964Z,28.28
2018-07-01T18:58:02.769Z,28.20
2018-07-01T19:00:31.175Z,28.10
2018-07-01T19:02:59.692Z,28.05
2018-07-01T19:05:28.780Z,27.99
2018-07-01T19:07:57.180Z,27.91
2018-07-01T19:10:25.522Z,27.87
2018-07-01T19:12:53.871Z,27.82
2018-07-01T19:15:22.295Z,27.77
2018-07-01T19:17:50.658Z,27.70
2018-07-01T19:20:19.012Z,27.65
2018-07-01T19:22:47.345Z,27.57
2018-07-01T19:25:15.723Z,27.50
2018-07-01T19:27:44.085Z,27.45
2018-07-01T19:30:12.459Z,27.38
2018-07-01T19:32:42.169Z,27.30
2018-07-01T19:35:10.579Z,27.24
2018-07-01T19:37:39.910Z,27.16
2018-07-01T19:40:08.253Z,27.09
2018-07-01T19:42:36.593Z,27.02
2018-07-01T19:45:05.449Z,26.96
2018-07-01T19:47:33.752Z,26.90
2018-07-01T19:50:02.177Z,26.83
2018-07-01T19:52:30.582Z,26.77
2018-07-01T19:54:58.895Z,26.73
2018-07-01T19:57:27.647Z,26.69
2018-07-01T19:59:55.967Z,26.65
2018-07-01T20:02:24.282Z,26.62
2018-07-01T20:04:52.574Z,26.55
2018-07-01T20:07:21.024Z,26.51
2018-07-01T20:09:49.336Z,26.45
2018-07-01T20:12:17.675Z,26.33
2018-07-01T20:14:46.035Z,26.34
2018-07-01T20:17:14.600Z,26.28
2018-07-01T20:19:43.356Z,26.20
2018-07-01T20:22:12.107Z,26.16
2018-07-01T20:24:40.529Z,26.11
2018-07-01T20:27:08.892Z,26.09
2018-07-01T20:29:37.186Z,26.03
2018-07-01T20:32:05.696Z,25.99
2018-07-01T20:34:34.225Z,25.92
2018-07-01T20:37:02.888Z,25.86
2018-07-01T20:39:31.397Z,25.81
2018-07-01T20:41:59.735Z,25.75
2018-07-01T20:44:28.056Z,25.70
2018-07-01T20:46:56.792Z,25.69
2018-07-01T20:49:25.372Z,25.65
2018-07-01T20:51:53.801Z,25.58
2018-07-01T20:54:22.966Z,25.53
2018-07-01T20:56:51.297Z,25.54
2018-07-01T20:59:19.673Z,25.50
2018-07-01T21:01:48.042Z,25.47
2018-07-01T21:04:16.378Z,25.44
2018-07-01T21:06:44.667Z,25.41
2018-07-01T21:09:12.986Z,25.35
2018-07-01T21:11:41.323Z,25.32
2018-07-01T21:14:09.651Z,25.27
2018-07-01T21:16:37.969Z,25.22
2018-07-01T21:19:06.326Z,25.19
2018-07-01T21:21:34.986Z,25.13
2018-07-01T21:24:03.300Z,25.09
2018-07-01T21:26:31.640Z,25.05
2018-07-01T21:28:59.964Z,25.04
2018-07-01T21:31:28.343Z,25.01
2018-07-01T21:33:56.712Z,24.97
2018-07-01T21:36:25.043Z,24.96
2018-07-01T21:38:53.408Z,24.93
2018-07-01T21:41:21.822Z,24.91
2018-07-01T21:43:50.235Z,24.90
2018-07-01T21:46:18.579Z,24.87
2018-07-01T21:48:46.883Z,24.83
2018-07-01T21:51:15.247Z,24.82
2018-07-01T21:53:43.579Z,24.78
2018-07-01T21:56:11.920Z,24.74
2018-07-01T21:58:40.261Z,24.68
2018-07-01T22:01:09.700Z,24.63
2018-07-01T22:03:38.072Z,24.54
2018-07-01T22:06:09.143Z,24.54
2018-07-01T22:08:38.243Z,24.51
2018-07-01T22:11:49.224Z,24.47
2018-07-01T22:14:24.068Z,24.40
2018-07-01T22:16:52.412Z,24.37
2018-07-01T22:19:21.209Z,24.32
2018-07-01T22:21:50.649Z,24.30
2018-07-01T22:24:19.051Z,24.26
2018-07-01T22:26:47.433Z,24.25
2018-07-01T22:29:16.779Z,24.22
2018-07-01T22:31:45.119Z,24.17
2018-07-01T22:34:15.573Z,24.13
2018-07-01T22:36:44.679Z,24.09
2018-07-01T22:39:29.803Z,24.07
2018-07-01T22:41:59.360Z,24.04
2018-07-01T22:44:28.019Z,24.03
2018-07-01T22:46:56.378Z,23.98
2018-07-01T22:49:24.720Z,23.95
2018-07-01T22:51:53.207Z,23.93
2018-07-01T22:54:21.599Z,23.91
2018-07-01T22:56:50.005Z,23.87
2018-07-01T22:59:18.370Z,23.87
2018-07-01T23:03:00.037Z,23.84
2018-07-01T23:05:28.468Z,23.78
2018-07-01T23:07:56.841Z,23.72
2018-07-01T23:10:26.385Z,23.70
2018-07-01T23:12:55.446Z,23.65
2018-07-01T23:15:23.888Z,23.59
2018-07-01T23:17:52.332Z,23.56
2018-07-01T23:20:20.693Z,23.52
2018-07-01T23:22:49.067Z,23.48
2018-07-01T23:25:17.455Z,23.42
2018-07-01T23:27:46.450Z,23.37
2018-07-01T23:30:14.781Z,23.34
2018-07-01T23:32:43.520Z,23.31
2018-07-01T23:35:11.899Z,23.30
2018-07-01T23:37:40.579Z,23.27
2018-07-01T23:40:09.808Z,23.28
2018-07-01T23:42:38.285Z,23.27
2018-07-01T23:45:08.331Z,23.26
2018-07-01T23:47:36.711Z,23.26
2018-07-01T23:50:05.874Z,23.23
2018-07-01T23:52:34.278Z,23.21
2018-07-01T23:55:02.660Z,23.18
2018-07-01T23:57:31.059Z,23.19
2018-07-01T23:59:59.497Z,23.17
